Time;durP1;ratioP1;P1;durP2;ratioP2;P2;SDS_P1;SDS_P2;PMS_P1;PMS_P2;Temp;Humidity;BMP_temperature;BMP_pressure;BME280_temperature;BME280_humidity;BME280_pressure;Samples;Min_cycle;Max_cycle;Signal;HPM_P1;HPM_P2
2022/07/20 00:00:06;;;;;;;0.20;0.20;;;26.10;41.10;;;;;;5063311;28;20056;-59
2022/07/20 00:02:34;;;;;;;1.35;0.40;;;26.10;41.10;;;;;;5065983;28;20040;-60
2022/07/20 00:05:01;;;;;;;0.32;0.28;;;26.10;41.20;;;;;;5065315;28;20144;-59
2022/07/20 00:07:29;;;;;;;0.57;0.57;;;26.10;41.20;;;;;;5065840;28;20040;-59
2022/07/20 00:12:43;;;;;;;0.50;0.50;;;26.10;41.30;;;;;;5065912;28;20048;-60
2022/07/20 00:15:10;;;;;;;0.55;0.52;;;26.10;41.30;;;;;;5063474;28;20550;-61
2022/07/20 00:17:37;;;;;;;0.63;0.40;;;26.00;41.20;;;;;;5062122;28;20045;-60
2022/07/20 00:20:05;;;;;;;0.30;0.30;;;26.00;41.30;;;;;;5073841;28;20229;-59
2022/07/20 00:22:32;;;;;;;0.32;0.32;;;26.00;41.30;;;;;;5085409;28;20047;-60
2022/07/20 00:24:59;;;;;;;0.30;0.30;;;26.00;41.30;;;;;;5085814;28;20105;-60
2022/07/20 00:27:26;;;;;;;0.32;0.32;;;26.00;41.30;;;;;;5085169;28;20182;-59
2022/07/20 00:29:53;;;;;;;0.63;0.63;;;26.00;41.90;;;;;;5084822;28;20069;-60
2022/07/20 00:32:21;;;;;;;0.30;0.30;;;26.00;41.30;;;;;;5086701;28;20078;-59
2022/07/20 00:34:48;;;;;;;0.45;0.40;;;26.00;41.40;;;;;;5084998;28;20134;-59
2022/07/20 00:37:15;;;;;;;0.40;0.40;;;26.00;41.40;;;;;;5084858;28;20343;-60
2022/07/20 00:39:42;;;;;;;0.40;0.40;;;26.00;41.40;;;;;;5083369;28;20048;-60
2022/07/20 00:42:09;;;;;;;0.35;0.35;;;26.00;41.40;;;;;;5086011;28;20435;-59
2022/07/20 00:44:36;;;;;;;0.40;0.40;;;26.00;41.40;;;;;;5087081;28;20048;-59
2022/07/20 00:47:04;;;;;;;0.40;0.40;;;26.00;41.50;;;;;;5081840;28;20056;-59
2022/07/20 00:49:31;;;;;;;0.40;0.13;;;26.00;41.50;;;;;;5086570;28;20248;-60
2022/07/20 00:51:58;;;;;;;0.50;0.50;;;26.00;41.50;;;;;;5086532;28;20056;-60
2022/07/20 00:54:25;;;;;;;0.30;0.30;;;26.00;41.50;;;;;;5086698;28;20377;-59
2022/07/20 00:56:53;;;;;;;0.38;0.35;;;26.00;41.50;;;;;;5086471;28;20044;-60
2022/07/20 00:59:20;;;;;;;0.28;0.28;;;26.00;41.50;;;;;;5085473;28;20048;-60
2022/07/20 01:01:47;;;;;;;0.20;0.20;;;26.00;41.50;;;;;;5085196;28;20480;-60
2022/07/20 01:04:15;;;;;;;0.30;0.30;;;26.00;41.50;;;;;;5086124;28;20131;-59
2022/07/20 01:06:43;;;;;;;2.38;0.30;;;26.00;41.60;;;;;;5085683;28;20649;-60
2022/07/20 01:09:10;;;;;;;0.40;0.40;;;25.90;41.50;;;;;;5085570;28;20614;-59
2022/07/20 01:11:37;;;;;;;0.45;0.45;;;26.00;41.60;;;;;;5085845;28;20477;-59
2022/07/20 01:14:06;;;;;;;0.73;0.70;;;26.00;41.60;;;;;;5086463;28;20565;-59
2022/07/20 01:16:34;;;;;;;0.40;0.40;;;26.00;41.60;;;;;;5085983;28;20093;-59
2022/07/20 01:19:02;;;;;;;0.30;0.30;;;26.00;41.60;;;;;;5081575;28;20048;-60
2022/07/20 01:21:29;;;;;;;0.25;0.25;;;26.00;41.60;;;;;;5086009;28;20109;-59
2022/07/20 01:23:56;;;;;;;0.50;0.50;;;26.00;41.60;;;;;;5086353;28;20097;-59
2022/07/20 01:26:24;;;;;;;0.30;0.30;;;26.00;41.60;;;;;;5086354;28;20063;-60
2022/07/20 01:28:51;;;;;;;0.30;0.30;;;26.00;42.20;;;;;;5086289;28;20156;-59
2022/07/20 01:31:19;;;;;;;0.20;0.20;;;26.00;41.60;;;;;;5085641;28;20079;-59
2022/07/20 01:33:46;;;;;;;0.50;0.50;;;25.90;42.10;;;;;;5085481;28;20135;-61
2022/07/20 01:36:14;;;;;;;0.47;0.32;;;25.90;41.60;;;;;;5085781;28;20056;-59
2022/07/20 01:38:41;;;;;;;1.58;0.32;;;25.90;41.60;;;;;;5085891;28;20090;-60
2022/07/20 01:41:08;;;;;;;0.40;0.40;;;25.90;41.60;;;;;;5083814;28;20048;-60
2022/07/20 01:43:35;;;;;;;0.30;0.30;;;25.90;41.60;;;;;;5084199;28;20097;-59
2022/07/20 01:46:03;;;;;;;0.20;0.20;;;25.90;41.70;;;;;;5087299;28;20508;-60
2022/07/20 01:48:30;;;;;;;0.28;0.28;;;25.90;41.70;;;;;;5087027;28;20040;-60
2022/07/20 01:50:58;;;;;;;0.60;0.60;;;25.90;41.70;;;;;;5083593;28;20052;-60
2022/07/20 01:53:25;;;;;;;0.22;0.22;;;25.90;41.70;;;;;;5087939;28;20404;-60
2022/07/20 01:55:52;;;;;;;0.40;0.40;;;25.90;41.70;;;;;;5087364;28;20048;-60
2022/07/20 01:58:20;;;;;;;1.42;0.55;;;25.90;41.70;;;;;;5088092;28;20090;-59
2022/07/20 02:00:49;;;;;;;0.28;0.28;;;25.90;41.80;;;;;;5086594;28;20436;-60
2022/07/20 02:03:17;;;;;;;0.28;0.28;;;25.90;41.80;;;;;;5088435;28;20332;-60
2022/07/20 02:05:45;;;;;;;1.02;0.32;;;25.90;41.80;;;;;;5087608;28;20052;-60
2022/07/20 02:08:12;;;;;;;0.60;0.60;;;25.90;41.80;;;;;;5088521;28;20109;-60
2022/07/20 02:10:39;;;;;;;0.20;0.20;;;25.80;41.80;;;;;;5087699;28;20125;-60
2022/07/20 02:13:07;;;;;;;0.30;0.30;;;25.80;41.80;;;;;;5088412;28;20049;-59
2022/07/20 02:16:37;;;;;;;0.20;0.20;;;25.80;42.30;;;;;;5086875;28;20271;-59
2022/07/20 02:18:21;;;;;;;0.30;0.30;;;25.80;41.80;;;;;;5087462;28;20044;-59
2022/07/20 02:20:48;;;;;;;0.45;0.35;;;25.80;41.80;;;;;;5088216;28;20482;-59
2022/07/20 02:23:15;;;;;;;0.30;0.30;;;25.80;41.90;;;;;;5083647;28;20079;-59
2022/07/20 02:25:43;;;;;;;0.17;0.17;;;25.80;41.90;;;;;;5087756;28;20078;-60
2022/07/20 02:28:10;;;;;;;0.40;0.40;;;25.80;41.90;;;;;;5087797;28;20048;-59
2022/07/20 02:30:38;;;;;;;0.30;0.30;;;25.80;41.90;;;;;;5087854;28;20140;-59
2022/07/20 02:33:05;;;;;;;2.65;0.40;;;25.80;41.90;;;;;;5087936;28;20072;-59
2022/07/20 02:35:32;;;;;;;0.50;0.38;;;25.80;41.90;;;;;;5086704;28;20051;-59
2022/07/20 02:38:00;;;;;;;0.50;0.50;;;25.80;41.90;;;;;;5087536;28;20052;-60
2022/07/20 02:40:27;;;;;;;0.28;0.20;;;25.80;41.90;;;;;;5086011;28;20120;-59
2022/07/20 02:42:54;;;;;;;0.90;0.30;;;25.80;41.90;;;;;;5087544;28;20528;-59
2022/07/20 02:45:22;;;;;;;0.40;0.40;;;25.80;41.90;;;;;;5087721;28;20166;-60
2022/07/20 02:47:49;;;;;;;0.30;0.30;;;25.80;41.90;;;;;;5087200;28;20236;-60
2022/07/20 02:50:17;;;;;;;0.30;0.30;;;25.80;42.50;;;;;;5087044;28;20051;-59
2022/07/20 02:52:44;;;;;;;0.38;0.38;;;25.80;42.00;;;;;;5087541;28;20497;-59
2022/07/20 02:55:12;;;;;;;0.38;0.30;;;25.80;41.90;;;;;;5081328;28;20500;-60
2022/07/20 02:57:39;;;;;;;0.20;0.20;;;25.80;41.90;;;;;;5087274;28;20124;-59
2022/07/20 03:00:09;;;;;;;0.40;0.40;;;25.80;42.00;;;;;;5086604;28;20591;-60
2022/07/20 03:02:36;;;;;;;;;;;25.80;42.00;;;;;;5087604;28;20051;-60
2022/07/20 03:05:04;;;;;;;0.40;0.40;;;25.80;42.00;;;;;;5087144;28;19920;-60
2022/07/20 03:07:32;;;;;;;0.38;0.30;;;25.80;42.00;;;;;;5086988;28;20044;-60
2022/07/20 03:09:59;;;;;;;0.20;0.20;;;25.80;42.00;;;;;;5086561;28;20105;-60
2022/07/20 03:12:26;;;;;;;0.30;0.30;;;25.80;42.00;;;;;;5087075;28;20187;-59
2022/07/20 03:14:54;;;;;;;1.65;0.40;;;25.80;42.00;;;;;;5073686;28;20490;-60
2022/07/20 03:17:21;;;;;;;0.20;0.20;;;25.80;42.00;;;;;;5066352;28;20400;-60
2022/07/20 03:19:48;;;;;;;0.25;0.25;;;25.80;42.00;;;;;;5066034;28;20546;-59
2022/07/20 03:22:16;;;;;;;0.40;0.40;;;25.80;42.10;;;;;;5071817;28;20044;-59
2022/07/20 03:24:43;;;;;;;0.30;0.30;;;25.80;42.10;;;;;;5082361;28;20079;-59
2022/07/20 03:27:10;;;;;;;0.40;0.40;;;25.80;42.10;;;;;;5083874;28;20040;-60
2022/07/20 03:29:37;;;;;;;0.55;0.50;;;25.80;42.10;;;;;;5086465;28;20079;-59
2022/07/20 03:32:05;;;;;;;0.22;0.20;;;25.80;42.10;;;;;;5085107;28;20121;-59
2022/07/20 03:34:33;;;;;;;0.30;0.30;;;25.70;42.00;;;;;;5063652;28;20307;-60
2022/07/20 03:37:00;;;;;;;0.70;0.40;;;25.80;42.10;;;;;;5066004;28;20093;-59
2022/07/20 03:39:28;;;;;;;0.30;0.30;;;25.80;42.10;;;;;;5066150;28;20056;-60
2022/07/20 03:41:55;;;;;;;0.22;0.22;;;25.80;42.10;;;;;;5076292;28;20051;-59
2022/07/20 03:44:22;;;;;;;0.82;0.43;;;25.80;42.10;;;;;;5067945;28;20378;-59
2022/07/20 03:46:49;;;;;;;0.38;0.38;;;25.80;42.10;;;;;;5085725;28;20044;-59
2022/07/20 03:49:17;;;;;;;0.50;0.50;;;25.80;42.10;;;;;;5080671;28;20124;-59
2022/07/20 03:51:44;;;;;;;0.30;0.30;;;25.80;42.00;;;;;;5076622;28;20048;-60
2022/07/20 03:54:11;;;;;;;0.43;0.30;;;25.80;42.00;;;;;;5086076;28;20544;-60
2022/07/20 03:56:42;;;;;;;0.30;0.30;;;25.80;42.00;;;;;;5079736;28;20052;-59
2022/07/20 03:59:09;;;;;;;;;;;25.80;42.00;;;;;;5086190;28;20097;-59
2022/07/20 04:01:37;;;;;;;0.40;0.30;;;25.80;42.00;;;;;;5086254;28;19973;-59
2022/07/20 04:04:05;;;;;;;1.25;0.20;;;25.90;42.00;;;;;;5086460;28;20044;-59
2022/07/20 04:06:33;;;;;;;0.60;0.38;;;25.90;42.00;;;;;;5085053;28;20481;-59
2022/07/20 04:09:00;;;;;;;0.73;0.35;;;25.90;42.00;;;;;;5084936;28;20129;-60
2022/07/20 04:11:28;;;;;;;0.28;0.20;;;25.90;41.90;;;;;;5084604;28;20448;-59
2022/07/20 04:13:55;;;;;;;0.20;0.20;;;25.90;41.90;;;;;;5085254;28;20056;-59
2022/07/20 04:16:22;;;;;;;0.25;0.25;;;26.00;41.90;;;;;;5084886;28;20106;-60
2022/07/20 04:18:50;;;;;;;0.30;0.30;;;26.00;41.90;;;;;;5083841;28;20048;-59
2022/07/20 04:21:17;;;;;;;0.47;0.47;;;26.00;41.90;;;;;;5085490;28;20597;-61
2022/07/20 04:23:45;;;;;;;0.57;0.35;;;26.00;41.80;;;;;;5085476;28;20485;-60
2022/07/20 04:26:12;;;;;;;0.45;0.38;;;26.00;41.80;;;;;;5084664;28;20097;-59
2022/07/20 04:28:39;;;;;;;0.65;0.30;;;26.00;41.80;;;;;;5080788;28;20036;-60
2022/07/20 04:31:06;;;;;;;0.68;0.40;;;26.00;41.70;;;;;;5085569;28;20446;-60
2022/07/20 04:33:34;;;;;;;0.22;0.22;;;26.10;41.80;;;;;;5083822;28;20047;-60
2022/07/20 04:36:01;;;;;;;0.43;0.43;;;26.00;41.70;;;;;;5085577;28;20052;-59
2022/07/20 04:38:28;;;;;;;0.98;0.38;;;26.10;41.70;;;;;;5084958;28;20536;-59
2022/07/20 04:40:56;;;;;;;0.40;0.40;;;26.10;41.70;;;;;;5083509;28;20079;-60
2022/07/20 04:43:23;;;;;;;0.50;0.50;;;26.10;41.60;;;;;;5085297;28;20047;-60
2022/07/20 04:45:50;;;;;;;0.40;0.40;;;26.10;41.60;;;;;;5085199;28;20074;-60
2022/07/20 04:48:24;;;;;;;1.85;0.30;;;26.10;41.60;;;;;;5083858;28;20089;-60
2022/07/20 04:50:51;;;;;;;0.30;0.30;;;26.10;41.60;;;;;;5084775;28;20104;-60
2022/07/20 04:53:18;;;;;;;0.93;0.52;;;26.20;41.60;;;;;;5085013;28;20040;-59
2022/07/20 04:55:45;;;;;;;0.98;0.30;;;26.20;41.50;;;;;;5085544;28;20456;-60
2022/07/20 04:58:13;;;;;;;0.47;0.40;;;26.20;41.50;;;;;;5083444;28;20040;-59
2022/07/20 05:00:40;;;;;;;0.57;0.30;;;26.20;41.40;;;;;;5062781;28;20044;-60
2022/07/20 05:03:07;;;;;;;0.40;0.35;;;26.20;41.40;;;;;;5084755;28;20437;-59
2022/07/20 05:05:35;;;;;;;0.57;0.40;;;26.20;41.40;;;;;;5084335;28;20067;-59
2022/07/20 05:08:02;;;;;;;1.95;0.50;;;26.30;41.50;;;;;;5081803;28;20098;-59
2022/07/20 05:10:30;;;;;;;0.55;0.40;;;26.20;41.50;;;;;;5067374;28;20409;-59
2022/07/20 05:12:57;;;;;;;0.52;0.32;;;26.20;41.70;;;;;;5073310;28;20044;-59
2022/07/20 05:15:24;;;;;;;0.88;0.40;;;26.10;41.80;;;;;;5075744;28;20051;-60
2022/07/20 05:17:52;;;;;;;0.50;0.50;;;26.00;42.10;;;;;;5077367;28;20527;-59
2022/07/20 05:20:19;;;;;;;0.55;0.40;;;25.80;42.30;;;;;;5079687;28;20056;-66
2022/07/20 05:22:46;;;;;;;0.80;0.80;;;25.50;42.80;;;;;;5068395;28;20052;-66
2022/07/20 05:25:14;;;;;;;2.30;1.15;;;25.30;43.30;;;;;;5078548;28;20438;-68
2022/07/20 05:27:41;;;;;;;2.22;1.10;;;25.00;44.00;;;;;;5083647;28;20109;-66
2022/07/20 05:30:09;;;;;;;4.18;1.33;;;24.70;44.60;;;;;;5086205;28;20131;-65
2022/07/20 05:32:37;;;;;;;3.70;1.35;;;24.30;45.10;;;;;;5078716;28;20531;-67
2022/07/20 05:35:06;;;;;;;3.08;1.40;;;24.00;45.50;;;;;;5081121;28;20071;-65
2022/07/20 05:37:34;;;;;;;6.30;1.35;;;23.60;45.90;;;;;;5092900;28;20056;-66
2022/07/20 05:40:02;;;;;;;4.22;1.52;;;23.30;46.10;;;;;;5083206;28;20444;-66
2022/07/20 05:42:29;;;;;;;4.65;1.58;;;23.00;46.30;;;;;;5080208;28;20047;-59
2022/07/20 05:44:56;;;;;;;3.88;1.55;;;22.80;46.20;;;;;;5060915;28;20060;-59
2022/07/20 05:47:24;;;;;;;1.70;1.45;;;22.50;46.70;;;;;;5067545;28;20040;-61
2022/07/20 05:49:52;;;;;;;3.70;2.00;;;22.20;47.10;;;;;;5074527;28;20054;-58
2022/07/20 05:52:19;;;;;;;5.25;1.63;;;22.00;47.80;;;;;;5078710;28;20044;-58
2022/07/20 05:54:46;;;;;;;4.05;1.88;;;21.80;49.00;;;;;;5078812;28;20052;-58
2022/07/20 05:57:13;;;;;;;4.03;2.03;;;21.60;48.50;;;;;;5082163;28;20044;-58
2022/07/20 05:59:42;;;;;;;7.72;1.80;;;21.50;48.90;;;;;;5057788;28;20040;-58
2022/07/20 06:02:09;;;;;;;3.58;1.98;;;21.30;49.10;;;;;;5076386;28;20113;-59
2022/07/20 06:04:37;;;;;;;3.90;2.00;;;21.20;49.40;;;;;;5073221;28;20655;-58
2022/07/20 06:07:05;;;;;;;5.07;2.33;;;21.20;49.70;;;;;;5071997;28;20104;-58
2022/07/20 06:09:32;;;;;;;4.45;1.90;;;21.00;50.00;;;;;;5074393;28;20722;-59
2022/07/20 06:12:00;;;;;;;4.15;1.95;;;21.00;50.50;;;;;;5081356;28;20134;-58
2022/07/20 06:14:27;;;;;;;2.63;2.00;;;20.90;51.00;;;;;;5078598;28;20052;-58
2022/07/20 06:16:54;;;;;;;3.17;2.10;;;20.80;51.40;;;;;;5078971;28;20052;-58
2022/07/20 06:19:22;;;;;;;4.97;2.40;;;20.90;51.80;;;;;;5084526;28;20105;-58
2022/07/20 06:21:49;;;;;;;3.80;1.52;;;20.90;51.90;;;;;;5077702;28;20048;-58
2022/07/20 06:24:16;;;;;;;3.33;1.88;;;20.90;52.10;;;;;;5077069;28;20043;-57
2022/07/20 06:26:45;;;;;;;5.60;1.65;;;20.90;52.00;;;;;;5075710;28;20390;-57
2022/07/20 06:29:15;;;;;;;5.95;2.50;;;21.00;51.80;;;;;;5076855;28;20040;-58
2022/07/20 06:31:42;;;;;;;4.05;1.50;;;21.00;51.60;;;;;;5084547;28;20346;-57
2022/07/20 06:34:29;;;;;;;7.85;1.80;;;21.10;51.40;;;;;;5070671;28;20040;-59
2022/07/20 06:36:57;;;;;;;3.35;1.65;;;21.10;51.90;;;;;;5080439;28;20054;-58
2022/07/20 06:39:24;;;;;;;1.92;1.58;;;21.10;51.40;;;;;;5077714;28;20382;-59
2022/07/20 06:41:51;;;;;;;5.47;2.50;;;21.10;51.50;;;;;;5077389;28;20055;-59
2022/07/20 06:44:18;;;;;;;6.53;1.63;;;21.10;51.50;;;;;;5076937;28;20105;-60
2022/07/20 06:46:46;;;;;;;2.38;1.70;;;21.00;51.60;;;;;;5077070;28;20060;-59
2022/07/20 06:49:14;;;;;;;4.57;1.60;;;21.10;51.70;;;;;;5078481;28;20044;-59
2022/07/20 06:51:42;;;;;;;2.40;1.65;;;21.10;51.70;;;;;;5083211;28;20083;-60
2022/07/20 06:54:10;;;;;;;1.35;1.20;;;21.10;51.80;;;;;;5062787;28;20043;-59
2022/07/20 06:56:40;;;;;;;;;;;21.10;51.90;;;;;;5080608;28;20044;-60
2022/07/20 06:59:07;;;;;;;4.15;1.70;;;21.10;52.00;;;;;;5081069;28;20651;-60
2022/07/20 07:01:35;;;;;;;1.67;1.40;;;21.10;52.20;;;;;;5078339;28;20036;-60
2022/07/20 07:04:03;;;;;;;4.13;1.48;;;21.20;52.40;;;;;;5078899;28;20447;-61
2022/07/20 07:06:34;;;;;;;2.92;1.73;;;21.20;52.40;;;;;;5077411;28;20041;-61
2022/07/20 07:09:02;;;;;;;2.22;1.20;;;21.20;52.50;;;;;;5079630;28;20130;-60
2022/07/20 07:11:30;;;;;;;2.42;1.58;;;21.30;52.60;;;;;;5075408;28;20129;-60
2022/07/20 07:13:57;;;;;;;4.88;2.10;;;21.30;52.70;;;;;;5083404;28;20048;-60
2022/07/20 07:16:25;;;;;;;3.20;1.65;;;21.30;52.60;;;;;;5079123;28;20059;-60
2022/07/20 07:18:53;;;;;;;1.27;1.17;;;21.40;52.80;;;;;;5086199;28;20178;-62
2022/07/20 07:21:22;;;;;;;3.53;1.40;;;21.40;52.80;;;;;;5080155;28;20048;-60
2022/07/20 07:23:49;;;;;;;4.38;1.73;;;21.50;52.70;;;;;;5074783;28;20052;-59
2022/07/20 07:26:24;;;;;;;1.35;1.17;;;21.50;52.60;;;;;;5079302;28;20047;-59
2022/07/20 07:28:52;;;;;;;2.45;1.40;;;21.50;52.70;;;;;;5055192;28;20059;-59
2022/07/20 07:31:23;;;;;;;1.65;1.55;;;21.60;52.90;;;;;;5078945;28;20142;-59
2022/07/20 07:33:51;;;;;;;3.65;1.42;;;21.60;53.10;;;;;;5072285;28;20127;-59
2022/07/20 07:36:18;;;;;;;1.73;1.23;;;21.60;53.10;;;;;;5076753;28;20093;-59
2022/07/20 07:38:45;;;;;;;2.03;1.30;;;21.60;52.90;;;;;;5078205;28;20055;-60
2022/07/20 07:41:14;;;;;;;5.30;1.40;;;21.70;52.90;;;;;;5078804;28;20052;-59
2022/07/20 07:43:41;;;;;;;3.72;1.60;;;21.70;52.70;;;;;;5081117;28;20054;-58
2022/07/20 07:46:09;;;;;;;2.17;1.40;;;21.70;52.60;;;;;;5075375;28;20044;-59
2022/07/20 07:48:36;;;;;;;1.23;1.13;;;21.70;52.70;;;;;;5082941;28;20533;-59
2022/07/20 07:51:03;;;;;;;1.55;1.40;;;21.70;52.70;;;;;;5081425;28;20509;-58
2022/07/20 07:53:31;;;;;;;3.35;1.60;;;21.80;52.80;;;;;;5081464;28;20530;-59
2022/07/20 07:55:59;;;;;;;1.70;1.60;;;21.80;53.00;;;;;;5074941;28;20075;-59
2022/07/20 07:58:26;;;;;;;3.53;1.30;;;21.80;52.70;;;;;;5080581;28;20066;-59
2022/07/20 08:00:53;;;;;;;2.08;1.35;;;21.80;52.80;;;;;;5078293;28;20437;-58
2022/07/20 08:03:22;;;;;;;1.80;1.30;;;21.80;52.80;;;;;;5076435;28;20185;-59
2022/07/20 08:05:55;;;;;;;2.00;1.20;;;21.90;52.90;;;;;;5077714;28;20044;-58
2022/07/20 08:08:22;;;;;;;1.92;1.40;;;22.00;53.00;;;;;;5068521;28;20051;-59
2022/07/20 08:10:49;;;;;;;3.47;1.73;;;22.00;53.00;;;;;;5069207;28;20097;-59
2022/07/20 08:13:16;;;;;;;1.75;1.20;;;22.00;53.00;;;;;;5064072;28;20431;-58
2022/07/20 08:15:45;;;;;;;1.48;1.38;;;22.00;52.90;;;;;;5070390;28;20101;-59
2022/07/20 08:18:18;;;;;;;2.03;1.48;;;22.00;52.80;;;;;;5077896;28;20048;-59
2022/07/20 08:20:45;;;;;;;3.17;1.77;;;22.10;53.10;;;;;;5078521;28;20064;-59
2022/07/20 08:23:13;;;;;;;2.85;1.20;;;22.00;53.20;;;;;;5080034;28;20081;-59
2022/07/20 08:25:40;;;;;;;3.47;1.25;;;22.00;53.30;;;;;;5077199;28;20044;-59
2022/07/20 08:28:17;;;;;;;1.75;1.55;;;22.00;53.40;;;;;;5072333;28;20056;-59
2022/07/20 08:30:46;;;;;;;1.95;1.33;;;22.10;53.30;;;;;;5073220;28;20068;-60
2022/07/20 08:33:22;;;;;;;3.92;1.80;;;22.10;53.30;;;;;;5070740;28;20693;-60
2022/07/20 08:35:50;;;;;;;3.95;1.10;;;22.10;53.30;;;;;;5067210;28;20048;-60
2022/07/20 08:38:17;;;;;;;1.92;1.77;;;22.10;53.30;;;;;;5073773;28;20454;-60
2022/07/20 08:40:45;;;;;;;2.05;1.40;;;22.10;53.30;;;;;;5075676;28;20518;-59
2022/07/20 08:43:13;;;;;;;1.40;1.30;;;22.10;53.30;;;;;;5075024;28;20052;-59
2022/07/20 08:45:46;;;;;;;1.88;1.20;;;22.10;53.40;;;;;;5068430;28;20124;-60
2022/07/20 08:48:18;;;;;;;2.00;1.80;;;22.10;53.40;;;;;;5071177;28;20063;-59
2022/07/20 08:50:47;;;;;;;2.97;1.60;;;22.10;53.40;;;;;;5078720;28;20151;-61
2022/07/20 08:53:15;;;;;;;1.33;1.15;;;22.10;53.40;;;;;;5072909;28;20146;-61
2022/07/20 08:55:42;;;;;;;2.05;1.42;;;22.10;53.00;;;;;;5075661;28;20385;-62
2022/07/20 08:58:10;;;;;;;2.65;1.50;;;22.20;53.00;;;;;;5073692;28;20044;-61
2022/07/20 09:00:38;;;;;;;2.30;1.65;;;22.20;52.90;;;;;;5078283;28;20048;-60
2022/07/20 09:03:08;;;;;;;2.53;1.45;;;22.20;52.90;;;;;;5075346;28;20495;-60
2022/07/20 09:05:37;;;;;;;5.97;1.95;;;22.20;53.00;;;;;;5073672;28;20043;-61
2022/07/20 09:08:09;;;;;;;2.63;1.15;;;22.20;53.10;;;;;;5072522;28;20665;-59
2022/07/20 09:10:41;;;;;;;2.60;1.25;;;22.20;53.20;;;;;;5074539;28;20055;-59
2022/07/20 09:13:18;;;;;;;1.38;1.27;;;22.20;53.50;;;;;;5069533;28;20359;-60
2022/07/20 09:15:49;;;;;;;3.03;1.30;;;22.20;53.70;;;;;;5064408;28;20060;-59
2022/07/20 09:18:24;;;;;;;1.85;1.20;;;22.20;53.70;;;;;;5074774;28;20512;-60
2022/07/20 09:20:55;;;;;;;3.28;1.20;;;22.20;53.60;;;;;;5079027;28;20121;-60
2022/07/20 09:23:29;;;;;;;1.52;0.98;;;22.20;53.50;;;;;;5070709;28;20101;-60
2022/07/20 09:26:06;;;;;;;2.78;1.58;;;22.30;53.70;;;;;;5072475;28;20052;-59
2022/07/20 09:28:39;;;;;;;1.67;1.30;;;22.30;53.60;;;;;;5077409;28;20442;-60
2022/07/20 09:31:30;;;;;;;2.50;1.40;;;22.30;53.60;;;;;;5078129;28;20055;-60
2022/07/20 09:34:13;;;;;;;1.80;1.30;;;22.30;53.50;;;;;;5072111;28;20132;-59
2022/07/20 09:36:46;;;;;;;1.25;1.15;;;22.30;53.00;;;;;;5074601;28;20055;-59
2022/07/20 09:39:19;;;;;;;2.60;1.20;;;22.40;53.00;;;;;;5074061;28;20083;-60
2022/07/20 09:41:56;;;;;;;3.38;1.42;;;22.40;52.80;;;;;;5076294;28;20168;-61
2022/07/20 09:44:26;;;;;;;1.00;0.93;;;22.50;52.50;;;;;;5072229;28;20067;-61
2022/07/20 09:46:54;;;;;;;2.25;1.02;;;22.50;52.00;;;;;;5069441;28;20461;-60
2022/07/20 09:49:30;;;;;;;3.35;1.10;;;22.60;51.80;;;;;;5072612;28;20134;-60
2022/07/20 09:51:59;;;;;;;2.53;1.13;;;22.60;51.70;;;;;;5078121;28;20157;-59
2022/07/20 09:54:46;;;;;;;1.48;0.88;;;22.50;51.60;;;;;;5074379;28;20048;-60
2022/07/20 09:57:15;;;;;;;1.73;1.20;;;22.60;51.60;;;;;;5079872;28;20055;-59
2022/07/20 09:59:48;;;;;;;2.63;1.02;;;22.50;51.40;;;;;;5072421;28;20476;-61
2022/07/20 10:02:15;;;;;;;4.25;1.00;;;22.50;51.40;;;;;;5072709;28;20131;-61
2022/07/20 10:04:45;;;;;;;1.77;1.15;;;22.50;50.90;;;;;;5078540;28;20460;-60
2022/07/20 10:07:12;;;;;;;2.10;1.10;;;22.50;50.60;;;;;;5082153;28;20078;-60
2022/07/20 10:09:39;;;;;;;3.78;1.10;;;22.50;50.40;;;;;;5076653;28;20432;-62
2022/07/20 10:12:07;;;;;;;1.00;0.80;;;22.60;50.30;;;;;;5077307;28;20075;-60
2022/07/20 10:14:35;;;;;;;2.33;1.05;;;22.60;50.10;;;;;;5076778;28;20040;-61
2022/07/20 10:17:02;;;;;;;1.17;1.05;;;22.50;50.00;;;;;;5078518;28;20126;-61
2022/07/20 10:19:46;;;;;;;3.47;0.80;;;22.50;49.90;;;;;;5073530;28;20068;-60
2022/07/20 10:22:14;;;;;;;2.03;1.05;;;22.50;49.80;;;;;;5073313;28;20056;-60
2022/07/20 10:24:44;;;;;;;0.93;0.90;;;22.50;49.80;;;;;;5073158;28;20494;-60
2022/07/20 10:27:31;;;;;;;1.00;0.88;;;22.50;50.00;;;;;;5077844;28;20518;-59
2022/07/20 10:30:15;;;;;;;0.88;0.88;;;22.50;50.10;;;;;;5082956;28;20227;-60
2022/07/20 10:32:52;;;;;;;1.88;1.05;;;22.50;50.00;;;;;;5080975;28;20405;-60
2022/07/20 10:35:28;;;;;;;1.40;1.13;;;22.50;49.90;;;;;;5076957;28;20474;-60
2022/07/20 10:37:57;;;;;;;0.90;0.90;;;22.50;49.60;;;;;;5079519;28;20121;-60
2022/07/20 10:40:26;;;;;;;5.07;1.70;;;22.50;49.50;;;;;;5073605;28;20044;-60
2022/07/20 10:43:12;;;;;;;1.60;1.08;;;22.50;49.40;;;;;;5075812;28;20067;-61
2022/07/20 10:45:40;;;;;;;1.08;0.98;;;22.50;49.30;;;;;;5077244;28;20040;-61
2022/07/20 10:48:17;;;;;;;1.52;0.85;;;22.40;49.10;;;;;;5079395;28;20269;-61
2022/07/20 10:50:49;;;;;;;0.93;0.90;;;22.40;49.20;;;;;;5078407;28;20075;-61
2022/07/20 10:53:30;;;;;;;0.80;0.80;;;22.30;49.20;;;;;;5078892;28;20043;-61
2022/07/20 10:56:06;;;;;;;1.13;0.98;;;22.20;49.10;;;;;;5071672;28;20063;-61
2022/07/20 10:58:41;;;;;;;1.20;1.08;;;22.20;49.40;;;;;;5078101;28;20105;-60
2022/07/20 11:01:11;;;;;;;0.90;0.90;;;22.10;49.50;;;;;;5075626;28;20143;-61
2022/07/20 11:03:42;;;;;;;2.08;1.13;;;22.10;49.50;;;;;;5074360;28;20449;-62
2022/07/20 11:06:18;;;;;;;0.80;0.80;;;22.00;49.60;;;;;;5074158;28;20048;-62
2022/07/20 11:08:56;;;;;;;2.47;0.90;;;22.00;49.70;;;;;;5076129;28;20047;-61
2022/07/20 11:11:29;;;;;;;4.03;1.20;;;21.90;49.80;;;;;;5067659;28;20140;-60
2022/07/20 11:13:57;;;;;;;1.00;1.00;;;21.90;49.70;;;;;;5069113;28;20488;-61
2022/07/20 11:16:26;;;;;;;3.22;1.00;;;21.80;50.00;;;;;;5078057;28;20051;-60
2022/07/20 11:18:55;;;;;;;1.83;0.68;;;21.80;50.30;;;;;;5078878;28;20417;-59
2022/07/20 11:21:32;;;;;;;3.00;1.00;;;21.90;50.20;;;;;;5061157;28;20044;-59
2022/07/20 11:24:06;;;;;;;2.25;1.23;;;21.90;50.10;;;;;;5071821;28;20346;-61
2022/07/20 11:26:33;;;;;;;1.40;0.95;;;21.80;50.90;;;;;;5073478;28;20063;-61
2022/07/20 11:29:00;;;;;;;1.02;0.90;;;21.80;51.00;;;;;;5076625;28;20141;-60
2022/07/20 11:31:30;;;;;;;3.50;1.23;;;21.80;51.30;;;;;;5080383;28;20044;-61
2022/07/20 11:33:58;;;;;;;1.77;0.80;;;21.80;51.30;;;;;;5077714;28;20045;-61
2022/07/20 11:36:29;;;;;;;2.10;0.95;;;21.80;51.30;;;;;;5074515;28;20498;-60
2022/07/20 11:38:59;;;;;;;2.05;1.05;;;21.80;51.40;;;;;;5079164;28;20500;-60
2022/07/20 11:41:37;;;;;;;1.17;1.08;;;21.80;51.20;;;;;;5076576;28;20056;-60
2022/07/20 11:44:07;;;;;;;1.38;0.93;;;21.80;51.20;;;;;;5071248;28;20044;-60
2022/07/20 11:46:43;;;;;;;2.10;1.25;;;21.80;51.40;;;;;;5073736;28;20512;-60
2022/07/20 11:49:16;;;;;;;2.30;1.17;;;21.80;51.40;;;;;;5066743;28;20052;-59
2022/07/20 11:51:59;;;;;;;1.95;1.25;;;21.80;51.50;;;;;;5072832;28;20044;-60
2022/07/20 11:54:32;;;;;;;1.50;1.30;;;21.80;51.60;;;;;;5068829;28;20114;-59
2022/07/20 11:56:59;;;;;;;1.88;1.35;;;21.80;51.60;;;;;;5073193;28;20113;-59
2022/07/20 11:59:27;;;;;;;3.00;1.05;;;21.80;51.60;;;;;;5070738;28;20044;-61
2022/07/20 12:01:57;;;;;;;2.05;1.20;;;21.80;51.60;;;;;;5071093;28;20052;-61
2022/07/20 12:04:25;;;;;;;;;;;21.80;51.80;;;;;;5075282;28;20485;-59
2022/07/20 12:06:58;;;;;;;2.85;1.67;;;21.90;51.80;;;;;;5076455;28;19919;-60
2022/07/20 12:09:35;;;;;;;1.23;1.17;;;21.90;51.70;;;;;;5079443;28;20052;-61
2022/07/20 12:12:07;;;;;;;1.98;1.33;;;21.90;51.80;;;;;;5064454;28;20062;-61
2022/07/20 12:14:38;;;;;;;1.67;1.20;;;21.90;51.90;;;;;;5071466;28;20044;-59
2022/07/20 12:17:30;;;;;;;1.35;1.25;;;21.90;52.20;;;;;;5070804;28;20048;-60
2022/07/20 12:19:59;;;;;;;2.15;1.27;;;22.00;51.90;;;;;;5081604;28;20059;-59
2022/07/20 12:22:32;;;;;;;1.00;0.77;;;22.00;51.70;;;;;;5067610;28;20059;-59
2022/07/20 12:25:02;;;;;;;4.95;1.50;;;22.10;51.40;;;;;;5071234;28;20052;-59
2022/07/20 12:27:31;;;;;;;2.10;0.90;;;22.10;51.20;;;;;;5060688;28;20072;-59
2022/07/20 12:29:59;;;;;;;1.45;1.10;;;22.20;50.90;;;;;;5071804;28;20097;-60
2022/07/20 12:32:36;;;;;;;0.98;0.98;;;22.30;50.70;;;;;;5074443;28;20052;-59
2022/07/20 12:35:06;;;;;;;3.55;1.02;;;22.30;50.40;;;;;;5064097;28;20218;-59
2022/07/20 12:37:52;;;;;;;1.48;1.30;;;22.40;50.30;;;;;;5070010;28;20086;-60
2022/07/20 12:40:44;;;;;;;4.00;1.20;;;22.40;50.50;;;;;;5071118;28;20105;-60
2022/07/20 12:43:35;;;;;;;1.35;1.30;;;22.40;50.80;;;;;;5070245;28;20061;-60
2022/07/20 12:46:09;;;;;;;2.85;1.27;;;22.40;50.70;;;;;;5074871;28;20040;-60
2022/07/20 12:48:39;;;;;;;2.53;1.30;;;22.40;50.80;;;;;;5063281;28;20221;-61
2022/07/20 12:51:08;;;;;;;1.27;1.15;;;22.40;50.90;;;;;;5060755;28;20051;-59
2022/07/20 12:53:36;;;;;;;2.97;1.20;;;22.50;51.10;;;;;;5059223;28;20131;-60
2022/07/20 12:56:12;;;;;;;2.17;1.30;;;22.40;51.00;;;;;;5053440;28;21017;-60
2022/07/20 12:58:40;;;;;;;1.20;1.10;;;22.40;51.90;;;;;;5062644;28;20324;-61
2022/07/20 13:01:07;;;;;;;1.23;1.13;;;22.40;51.40;;;;;;5061981;28;20051;-59